Biggs Army Air Field (Fort Bliss)
KBIF : now visible

Airfield :











YOU CAN JOIN US ON...

 
LOGIN :

Register | Disclaimer

   EN    FR    IT 

 









Legend :    VFR   Marginal VFR   IFR   Intensive IFR   Very Intensive IFR
Visi :
Ceiling :
>= 8 km
>= 3000ft
5 to 8 km
1000 to 3000 ft
1500m to 5 km
500 to 1000 ft
800 to 1500m
200 to 500 ft
< 800m
< 200 ft
Symbols :   Thunderstorms  Fog  Heavy snow  Heavy precipitations  Wind > 20 kt






- Airport Elevation : 3946 ft


KBIF - Biggs Army Air Field (Fort Bliss)

CURRENT METAR :
  • 241755Z 29016G22KT 10SM FEW250 28/M03 A2981 RMK AO2 SLP016 T02831028 10283 20156 58016 $

EXPIRED METARs :
  • 241655Z 27015G25KT 10SM FEW250 27/M02 A2984 RMK A02A SLP026 T02671022 $
  • 241555Z 26016G26KT 10SM FEW250 25/M03 A2985 RMK AO2A SLP031 T02501033 $

TAF TAF KBIF
Valid from the 24 at 14:00 until the 25 at 20:00 UTC


241400Z 2414/2520 VRB06KT 9999 SKC 510603 QNH2980INS
BECMG 2417/2418 27019G28KT 9999 FEW250 520009 QNH2976INS
BECMG 2420/2421 29022G38KT 8000 BLDU SKC 530009 QNH2969INS
BECMG 2502/2503 33018G28KT 9000 HZ SCT250 520009 QNH2972INS
BECMG 2503/2504 VRB06KT 9999 FEW250 510052 QNH2989INS TX31/2422Z TN11/2512Z
KZAB FIR / North America



MET'MAP, your aeronautical weather chart ! - Copyright ORBIFLY December 2007 - Disclaimer

ORBIFLY MET'MAP TEAM :

Programming & Development : Alexandra Zaïnal
Original concept : Baudouin d'Aumeries
Technical & hardware support : Manuel Goepfert
Assistance : Marc-Olivier Méhu

Contact : metmap@orbifly.com




SOURCES & CREDITS :

   NOAA       Earth
Advisory